createdAt,value
2019-04-21T00:01:12.702Z,96848.98
2019-04-21T00:03:46.112Z,96840.44
2019-04-21T00:06:32.396Z,96841.08
2019-04-21T00:08:56.083Z,96838.00
2019-04-21T00:11:30.859Z,96833.16
2019-04-21T00:13:46.693Z,96835.41
2019-04-21T00:16:06.733Z,96836.13
2019-04-21T00:19:12.627Z,96827.11
2019-04-21T00:21:40.428Z,96822.78
2019-04-21T00:24:20.235Z,96819.59
2019-04-21T00:26:57.416Z,96815.07
2019-04-21T00:29:31.462Z,96810.55
2019-04-21T00:31:51.609Z,96800.97
2019-04-21T00:34:04.622Z,96807.77
2019-04-21T00:36:42.769Z,96800.46
2019-04-21T00:39:28.896Z,96796.86
2019-04-21T00:41:48.371Z,96787.29
2019-04-21T00:44:08.504Z,96788.93
2019-04-21T00:46:42.896Z,96786.39
2019-04-21T00:49:12.486Z,96786.89
2019-04-21T00:51:58.396Z,96792.95
2019-04-21T00:54:27.758Z,96799.14
2019-04-21T00:56:50.039Z,96795.63
2019-04-21T00:59:14.554Z,96793.18
2019-04-21T01:01:46.244Z,96794.70
2019-04-21T01:04:10.070Z,96790.58
2019-04-21T01:06:45.027Z,96790.78
2019-04-21T01:09:08.029Z,96790.67
2019-04-21T01:11:42.584Z,96794.89
2019-04-21T01:14:07.081Z,96795.41
2019-04-21T01:16:39.523Z,96796.52
2019-04-21T01:19:02.283Z,96811.30
2019-04-21T01:21:14.383Z,96801.84
2019-04-21T01:23:40.279Z,96804.23
2019-04-21T01:26:25.302Z,96802.98
2019-04-21T01:28:52.460Z,96806.59
2019-04-21T01:31:23.097Z,96806.38
2019-04-21T01:33:59.233Z,96793.85
2019-04-21T01:36:18.099Z,96803.09
2019-04-21T01:38:53.780Z,96804.31
2019-04-21T01:41:21.379Z,96802.16
2019-04-21T01:43:45.749Z,96799.48
2019-04-21T01:46:15.172Z,96806.16
2019-04-21T01:48:40.097Z,96804.00
2019-04-21T01:51:10.313Z,96799.40
2019-04-21T01:53:56.487Z,96802.78
2019-04-21T01:56:44.497Z,96797.64
2019-04-21T01:59:04.952Z,96799.14
2019-04-21T02:01:46.074Z,96796.98
2019-04-21T02:04:23.030Z,96802.02
2019-04-21T02:06:45.511Z,96800.77
2019-04-21T02:09:09.779Z,96796.22
2019-04-21T02:11:43.420Z,96801.56
2019-04-21T02:14:11.317Z,96802.16
2019-04-21T02:16:40.521Z,96801.30
2019-04-21T02:19:04.420Z,96794.11
2019-04-21T02:21:30.455Z,96791.29
2019-04-21T02:26:34.457Z,96793.52
2019-04-21T02:29:02.014Z,96786.30
2019-04-21T02:31:57.055Z,96784.84
2019-04-21T02:34:04.555Z,96785.61
2019-04-21T02:39:14.429Z,96777.37
2019-04-21T02:51:33.785Z,96761.65
2019-04-21T02:56:24.676Z,96761.14
2019-04-21T02:59:10.122Z,96760.31
2019-04-21T03:04:30.215Z,96761.56
2019-04-21T03:09:40.357Z,96753.77
2019-04-21T03:12:05.382Z,96761.58
2019-04-21T03:16:47.168Z,96749.88
2019-04-21T03:19:29.861Z,96740.62
2019-04-21T03:21:57.328Z,96738.22
2019-04-21T03:24:29.071Z,96745.08
2019-04-21T03:29:25.495Z,96735.92
2019-04-21T03:36:56.895Z,96723.19
2019-04-21T03:39:07.791Z,96726.46
2019-04-21T03:41:50.589Z,96725.64
2019-04-21T03:44:09.773Z,96732.61
2019-04-21T03:46:43.729Z,96726.99
2019-04-21T03:49:16.402Z,96728.06
2019-04-21T03:54:04.995Z,96728.11
2019-04-21T03:56:50.920Z,96728.63
2019-04-21T04:09:52.470Z,96725.02
2019-04-21T04:12:11.213Z,96729.30
2019-04-21T04:14:47.998Z,96723.41
2019-04-21T04:17:18.648Z,96716.49
2019-04-21T04:19:51.601Z,96717.31
2019-04-21T04:22:15.122Z,96721.44
2019-04-21T04:29:31.315Z,96724.30
2019-04-21T04:34:41.683Z,96724.23
2019-04-21T04:37:30.723Z,96719.81
2019-04-21T04:40:00.535Z,96722.64
2019-04-21T04:42:41.135Z,96716.81
2019-04-21T04:45:08.181Z,96714.31
2019-04-21T04:52:34.528Z,96706.33
2019-04-21T04:54:59.512Z,96704.36
2019-04-21T04:57:22.227Z,96701.19
2019-04-21T04:59:47.807Z,96697.61
2019-04-21T05:02:27.794Z,96700.97
2019-04-21T05:07:19.240Z,96699.42
2019-04-21T05:12:11.566Z,96704.62
2019-04-21T05:14:51.811Z,96702.52
2019-04-21T05:17:37.761Z,96699.58
2019-04-21T05:20:10.422Z,96696.66
2019-04-21T05:22:35.257Z,96694.16
2019-04-21T05:24:58.405Z,96696.88
2019-04-21T05:27:55.298Z,96694.25
2019-04-21T05:33:38.508Z,96696.31
2019-04-21T05:36:33.962Z,96706.39
2019-04-21T05:39:23.576Z,96698.81
2019-04-21T05:41:49.655Z,96712.72
2019-04-21T05:44:43.092Z,96708.69
2019-04-21T05:47:20.412Z,96709.09
2019-04-21T05:50:00.929Z,96704.97
2019-04-21T05:52:54.686Z,96701.37
2019-04-21T05:58:08.253Z,96702.30
2019-04-21T06:01:18.313Z,96695.73
2019-04-21T06:06:37.532Z,96695.13
2019-04-21T06:08:55.282Z,96693.64
2019-04-21T06:11:42.456Z,96694.70
2019-04-21T06:14:08.374Z,96696.13
2019-04-21T06:16:45.115Z,96695.07
2019-04-21T06:19:17.168Z,96697.44
2019-04-21T06:21:44.754Z,96692.33
2019-04-21T06:24:27.994Z,96692.28
2019-04-21T06:27:15.042Z,96698.67
2019-04-21T06:29:36.186Z,96692.95
2019-04-21T06:32:30.272Z,96690.84
2019-04-21T06:35:07.295Z,96691.44
2019-04-21T06:37:46.875Z,96686.63
2019-04-21T06:40:15.490Z,96679.72
2019-04-21T06:42:51.696Z,96679.94
2019-04-21T06:45:18.598Z,96682.42
2019-04-21T06:47:57.984Z,96677.66
2019-04-21T06:50:41.552Z,96683.08
2019-04-21T06:53:05.907Z,96685.92
2019-04-21T06:55:37.020Z,96676.56
2019-04-21T06:58:05.149Z,96675.95
2019-04-21T07:00:35.813Z,96670.40
2019-04-21T07:03:16.001Z,96665.36
2019-04-21T07:05:42.478Z,96669.98
2019-04-21T07:08:23.515Z,96668.28
2019-04-21T07:10:32.241Z,96660.39
2019-04-21T07:13:03.280Z,96657.47
2019-04-21T07:15:36.946Z,96657.27
2019-04-21T07:18:04.414Z,96663.63
2019-04-21T07:20:28.080Z,96659.21
2019-04-21T07:23:01.758Z,96649.44
2019-04-21T07:25:29.740Z,96646.19
2019-04-21T07:27:56.700Z,96649.97
2019-04-21T07:30:26.743Z,96639.70
2019-04-21T07:32:56.636Z,96645.22
2019-04-21T07:35:20.826Z,96644.02
2019-04-21T07:37:50.827Z,96647.16
2019-04-21T07:40:17.803Z,96644.81
2019-04-21T07:42:41.219Z,96649.26
2019-04-21T07:45:09.007Z,96652.88
2019-04-21T07:47:48.033Z,96648.08
2019-04-21T07:50:20.635Z,96645.16
2019-04-21T07:53:14.450Z,96635.22
2019-04-21T07:58:12.947Z,96641.91
2019-04-21T08:03:12.835Z,96629.38
2019-04-21T08:05:31.109Z,96636.75
2019-04-21T08:08:19.078Z,96633.31
2019-04-21T08:10:33.441Z,96629.88
2019-04-21T08:13:02.753Z,96627.83
2019-04-21T08:15:39.553Z,96623.91
2019-04-21T08:18:02.653Z,96617.47
2019-04-21T08:20:29.101Z,96619.97
2019-04-21T08:22:58.930Z,96621.12
2019-04-21T08:25:30.754Z,96621.70
2019-04-21T08:30:28.824Z,96608.80
2019-04-21T08:33:00.502Z,96609.13
2019-04-21T08:35:51.000Z,96611.07
2019-04-21T08:37:48.568Z,96602.69
2019-04-21T08:40:27.317Z,96611.98
2019-04-21T08:42:46.720Z,96603.05
2019-04-21T08:45:25.793Z,96598.72
2019-04-21T08:47:50.269Z,96606.63
2019-04-21T08:50:15.271Z,96604.18
2019-04-21T08:55:23.458Z,96599.00
2019-04-21T08:58:08.106Z,96588.41
2019-04-21T09:00:55.757Z,96585.69
2019-04-21T09:03:36.130Z,96579.66
2019-04-21T09:06:07.749Z,96580.96
2019-04-21T09:08:32.880Z,96574.38
2019-04-21T09:10:59.346Z,96577.56
2019-04-21T09:13:32.139Z,96568.48
2019-04-21T09:15:56.854Z,96565.67
2019-04-21T09:18:25.422Z,96568.87
2019-04-21T09:20:57.634Z,96567.41
2019-04-21T09:23:24.185Z,96560.19
2019-04-21T09:25:52.269Z,96554.61
2019-04-21T09:28:18.439Z,96554.16
2019-04-21T09:30:39.586Z,96546.36
2019-04-21T09:33:00.527Z,96551.13
2019-04-21T09:35:27.388Z,96544.47
2019-04-21T09:38:02.131Z,96542.22
2019-04-21T09:40:30.203Z,96542.11
2019-04-21T09:42:58.643Z,96536.22
2019-04-21T09:45:22.438Z,96530.88
2019-04-21T09:47:57.174Z,96526.86
2019-04-21T09:50:17.414Z,96529.14
2019-04-21T09:52:49.992Z,96527.83
2019-04-21T09:55:22.440Z,96516.34
2019-04-21T09:57:51.971Z,96510.35
2019-04-21T10:00:22.493Z,96511.16
2019-04-21T10:02:54.718Z,96507.08
2019-04-21T10:05:12.404Z,96505.50
2019-04-21T10:07:42.268Z,96499.48
2019-04-21T10:10:08.351Z,96499.77
2019-04-21T10:12:35.133Z,96495.58
2019-04-21T10:15:01.942Z,96489.34
2019-04-21T10:17:35.272Z,96483.66
2019-04-21T10:20:03.156Z,96475.58
2019-04-21T10:22:30.956Z,96471.23
2019-04-21T10:24:58.499Z,96471.90
2019-04-21T10:27:25.489Z,96464.24
2019-04-21T10:29:52.286Z,96461.58
2019-04-21T10:32:23.187Z,96456.60
2019-04-21T10:34:47.584Z,96449.05
2019-04-21T10:37:14.295Z,96454.13
2019-04-21T10:39:41.907Z,96446.09
2019-04-21T10:42:09.015Z,96446.78
2019-04-21T10:44:36.881Z,96448.94
2019-04-21T10:47:04.690Z,96439.30
2019-04-21T10:49:32.656Z,96428.94
2019-04-21T10:52:01.386Z,96430.45
2019-04-21T10:54:47.866Z,96428.77
2019-04-21T10:57:00.296Z,96422.04
2019-04-21T10:59:27.072Z,96419.95
2019-04-21T11:01:54.798Z,96415.16
2019-04-21T11:04:32.301Z,96417.48
2019-04-21T11:06:57.070Z,96411.61
2019-04-21T11:09:24.176Z,96405.88
2019-04-21T11:11:53.198Z,96396.05
2019-04-21T11:14:19.336Z,96393.38
2019-04-21T11:16:47.574Z,96392.59
2019-04-21T11:19:15.850Z,96394.33
2019-04-21T11:21:42.939Z,96386.28
2019-04-21T11:24:10.266Z,96381.09
2019-04-21T11:26:37.899Z,96382.45
2019-04-21T11:29:05.174Z,96374.42
2019-04-21T11:31:33.357Z,96372.08
2019-04-21T11:34:00.908Z,96365.05
2019-04-21T11:36:29.126Z,96366.04
2019-04-21T11:39:28.503Z,96361.72
2019-04-21T11:41:43.530Z,96367.08
2019-04-21T11:44:10.241Z,96357.73
2019-04-21T11:46:38.362Z,96362.30
2019-04-21T11:49:06.298Z,96350.23
2019-04-21T11:51:33.399Z,96347.17
2019-04-21T11:54:01.177Z,96341.11
2019-04-21T11:56:28.167Z,96338.62
2019-04-21T11:58:54.945Z,96340.66
2019-04-21T12:01:23.398Z,96334.27
2019-04-21T12:03:51.622Z,96324.20
2019-04-21T12:06:19.453Z,96320.44
2019-04-21T12:08:49.426Z,96326.91
2019-04-21T12:11:15.857Z,96326.84
2019-04-21T12:13:42.809Z,96327.00
2019-04-21T12:16:10.687Z,96325.32
2019-04-21T12:18:38.796Z,96311.41
2019-04-21T12:21:05.485Z,96315.52
2019-04-21T12:23:32.429Z,96314.06
2019-04-21T12:25:59.211Z,96306.97
2019-04-21T12:28:25.978Z,96307.62
2019-04-21T12:30:53.780Z,96310.84
2019-04-21T12:33:34.060Z,96301.88
2019-04-21T12:36:01.904Z,96293.14
2019-04-21T12:38:38.796Z,96304.20
2019-04-21T12:40:57.234Z,96301.86
2019-04-21T12:43:24.350Z,96289.14
2019-04-21T12:45:51.813Z,96291.88
2019-04-21T12:48:20.021Z,96283.80
2019-04-21T12:50:47.944Z,96283.59
2019-04-21T12:53:16.028Z,96281.39
2019-04-21T12:55:46.014Z,96278.27
2019-04-21T12:58:13.049Z,96274.27
2019-04-21T13:00:40.924Z,96273.56
2019-04-21T13:03:07.834Z,96279.09
2019-04-21T13:05:35.702Z,96270.08
2019-04-21T13:08:03.702Z,96270.12
2019-04-21T13:10:30.566Z,96259.63
2019-04-21T13:12:57.386Z,96260.94
2019-04-21T13:15:25.430Z,96258.63
2019-04-21T13:17:52.384Z,96249.87
2019-04-21T13:20:19.357Z,96250.47
2019-04-21T13:22:46.133Z,96250.01
2019-04-21T13:25:17.976Z,96245.33
2019-04-21T13:27:45.223Z,96227.47
2019-04-21T13:30:12.634Z,96236.70
2019-04-21T13:32:40.782Z,96225.69
2019-04-21T13:35:08.523Z,96228.34
2019-04-21T13:37:35.409Z,96228.63
2019-04-21T13:40:34.218Z,96218.57
2019-04-21T13:42:55.011Z,96213.02
2019-04-21T13:45:18.412Z,96213.27
2019-04-21T13:47:46.267Z,96213.89
2019-04-21T13:50:13.406Z,96201.98
2019-04-21T13:52:40.695Z,96200.74
2019-04-21T13:55:07.812Z,96200.38
2019-04-21T13:57:34.662Z,96197.59
2019-04-21T14:00:01.551Z,96195.66
2019-04-21T14:02:28.967Z,96186.89
2019-04-21T14:04:55.814Z,96185.78
2019-04-21T14:07:23.870Z,96184.23
2019-04-21T14:09:57.712Z,96175.20
2019-04-21T14:12:19.529Z,96176.79
2019-04-21T14:14:46.387Z,96183.17
2019-04-21T14:17:13.370Z,96179.19
2019-04-21T14:19:41.435Z,96174.59
2019-04-21T14:22:10.325Z,96175.09
2019-04-21T14:24:37.385Z,96164.99
2019-04-21T14:27:05.976Z,96168.78
2019-04-21T14:29:33.454Z,96170.13
2019-04-21T14:32:00.367Z,96167.47
2019-04-21T14:34:28.126Z,96168.41
2019-04-21T14:36:55.073Z,96169.17
2019-04-21T14:39:22.878Z,96162.61
2019-04-21T14:41:50.557Z,96156.54
2019-04-21T14:44:18.569Z,96156.25
2019-04-21T14:46:53.411Z,96153.48
2019-04-21T14:49:29.105Z,96154.72
2019-04-21T14:52:21.493Z,96151.58
2019-04-21T14:55:00.524Z,96141.35
2019-04-21T14:57:27.413Z,96145.75
2019-04-21T14:59:55.078Z,96144.40
2019-04-21T15:02:22.298Z,96144.83
2019-04-21T15:04:49.380Z,96144.50
2019-04-21T15:07:17.120Z,96146.91
2019-04-21T15:09:44.639Z,96136.06
2019-04-21T15:12:11.871Z,96137.56
2019-04-21T15:14:40.164Z,96130.77
2019-04-21T15:17:07.140Z,96133.88
2019-04-21T15:19:34.839Z,96132.62
2019-04-21T15:22:02.666Z,96135.23
2019-04-21T15:24:30.207Z,96132.98
2019-04-21T15:26:57.010Z,96128.87
2019-04-21T15:29:24.696Z,96131.12
2019-04-21T15:31:52.483Z,96121.05
2019-04-21T15:34:22.067Z,96121.43
2019-04-21T15:36:48.310Z,96121.24
2019-04-21T15:39:16.031Z,96122.37
2019-04-21T15:41:42.914Z,96122.91
2019-04-21T15:44:09.884Z,96122.17
2019-04-21T15:46:37.586Z,96117.81
2019-04-21T15:49:05.047Z,96115.25
2019-04-21T15:51:31.722Z,96114.95
2019-04-21T15:53:58.965Z,96113.93
2019-04-21T15:56:35.085Z,96106.87
2019-04-21T15:59:14.608Z,96102.33
2019-04-21T16:01:56.664Z,96098.17
2019-04-21T16:04:25.094Z,96089.95
2019-04-21T16:06:53.328Z,96095.72
2019-04-21T16:09:22.332Z,96095.85
2019-04-21T16:11:49.759Z,96090.55
2019-04-21T16:14:16.766Z,96087.85
2019-04-21T16:16:43.522Z,96081.08
2019-04-21T16:19:10.261Z,96086.02
2019-04-21T16:21:40.542Z,96081.77
2019-04-21T16:24:06.769Z,96080.98
2019-04-21T16:26:34.964Z,96081.48
2019-04-21T16:29:02.915Z,96082.92
2019-04-21T16:31:30.143Z,96087.22
2019-04-21T16:33:56.871Z,96079.45
2019-04-21T16:36:23.629Z,96076.11
2019-04-21T16:38:51.385Z,96072.24
2019-04-21T16:41:18.314Z,96079.83
2019-04-21T16:43:45.102Z,96074.83
2019-04-21T16:46:11.816Z,96074.58
2019-04-21T16:48:39.812Z,96061.55
2019-04-21T16:51:07.887Z,96066.25
2019-04-21T16:53:39.754Z,96060.34
2019-04-21T16:56:12.969Z,96065.62
2019-04-21T16:58:46.096Z,96058.66
2019-04-21T17:01:18.750Z,96057.66
2019-04-21T17:03:46.406Z,96058.81
2019-04-21T17:06:13.325Z,96059.53
2019-04-21T17:08:40.926Z,96062.28
2019-04-21T17:11:16.133Z,96057.44
2019-04-21T17:13:36.203Z,96060.60
2019-04-21T17:16:31.916Z,96058.72
2019-04-21T17:18:43.582Z,96052.86
2019-04-21T17:21:02.654Z,96055.98
2019-04-21T17:23:29.423Z,96049.86
2019-04-21T17:25:57.151Z,96047.89
2019-04-21T17:28:25.747Z,96048.02
2019-04-21T17:30:52.735Z,96053.72
2019-04-21T17:33:24.619Z,96050.56
2019-04-21T17:35:49.158Z,96049.22
2019-04-21T17:38:16.366Z,96053.92
2019-04-21T17:40:44.022Z,96054.04
2019-04-21T17:43:14.134Z,96059.47
2019-04-21T17:45:39.450Z,96056.29
2019-04-21T17:48:11.191Z,96060.55
2019-04-21T17:50:57.012Z,96053.06
2019-04-21T17:53:35.738Z,96058.14
2019-04-21T17:56:19.389Z,96051.56
2019-04-21T17:58:48.698Z,96058.51
2019-04-21T18:01:21.666Z,96064.08
2019-04-21T18:03:56.904Z,96063.06
2019-04-21T18:06:05.280Z,96060.59
2019-04-21T18:08:40.115Z,96069.58
2019-04-21T18:11:01.208Z,96064.75
2019-04-21T18:13:22.689Z,96069.91
2019-04-21T18:16:02.903Z,96065.27
2019-04-21T18:18:16.707Z,96073.13
2019-04-21T18:20:47.957Z,96075.80
2019-04-21T18:23:49.588Z,96072.73
2019-04-21T18:26:20.940Z,96073.73
2019-04-21T18:28:34.916Z,96067.67
2019-04-21T18:31:05.137Z,96069.73
2019-04-21T18:33:35.517Z,96074.30
2019-04-21T18:36:27.376Z,96072.08
2019-04-21T18:39:21.974Z,96069.53
2019-04-21T18:42:02.483Z,96077.64
2019-04-21T18:44:38.848Z,96073.00
2019-04-21T18:47:14.722Z,96077.32
2019-04-21T18:49:33.170Z,96092.81
2019-04-21T18:52:22.242Z,96092.29
2019-04-21T18:55:00.146Z,96092.77
2019-04-21T18:57:22.831Z,96090.78
2019-04-21T18:59:44.007Z,96090.39
2019-04-21T19:02:13.886Z,96093.23
2019-04-21T19:04:40.559Z,96091.48
2019-04-21T19:07:19.978Z,96093.44
2019-04-21T19:10:10.024Z,96093.80
2019-04-21T19:12:34.005Z,96094.16
2019-04-21T19:14:52.297Z,96096.88
2019-04-21T19:22:17.160Z,96100.09
2019-04-21T19:24:51.012Z,96100.11
2019-04-21T19:27:19.235Z,96098.53
2019-04-21T19:29:52.123Z,96096.09
2019-04-21T19:32:15.254Z,96104.23
2019-04-21T19:34:26.861Z,96102.91
2019-04-21T19:37:00.052Z,96104.53
2019-04-21T19:39:37.515Z,96102.12
2019-04-21T19:42:01.977Z,96097.78
2019-04-21T19:44:33.983Z,96101.02
2019-04-21T19:47:06.552Z,96098.61
2019-04-21T19:49:43.562Z,96098.30
2019-04-21T19:51:53.278Z,96096.41
2019-04-21T19:54:22.147Z,96095.85
2019-04-21T19:56:40.848Z,96092.86
2019-04-21T19:59:11.850Z,96090.66
2019-04-21T20:01:37.232Z,96083.61
2019-04-21T20:04:04.659Z,96083.03
2019-04-21T20:06:45.434Z,96084.61
2019-04-21T20:09:19.102Z,96080.49
2019-04-21T20:11:41.761Z,96085.83
2019-04-21T20:14:44.963Z,96090.37
2019-04-21T20:16:45.528Z,96087.62
2019-04-21T20:18:59.187Z,96087.05
2019-04-21T20:21:22.920Z,96087.02
2019-04-21T20:23:49.614Z,96088.59
2019-04-21T20:26:17.430Z,96085.34
2019-04-21T20:28:58.177Z,96084.23
2019-04-21T20:31:30.093Z,96082.03
2019-04-21T20:34:26.957Z,96079.55
2019-04-21T20:36:31.602Z,96069.23
2019-04-21T20:38:49.003Z,96065.94
2019-04-21T20:41:22.692Z,96070.96
2019-04-21T20:43:54.242Z,96067.15
2019-04-21T20:46:25.426Z,96060.41
2019-04-21T20:48:46.560Z,96058.20
2019-04-21T20:51:18.519Z,96059.19
2019-04-21T20:53:46.472Z,96058.86
2019-04-21T20:56:11.523Z,96062.02
2019-04-21T20:58:45.165Z,96059.80
2019-04-21T21:01:28.469Z,96059.46
2019-04-21T21:03:39.423Z,96056.14
2019-04-21T21:06:08.197Z,96054.48
2019-04-21T21:08:39.912Z,96054.43
2019-04-21T21:11:00.228Z,96057.31
2019-04-21T21:13:36.766Z,96049.98
2019-04-21T21:21:00.385Z,96079.48
2019-04-21T21:23:33.397Z,96083.44
2019-04-21T21:25:54.446Z,96077.17
2019-04-21T21:28:25.012Z,96076.25
2019-04-21T21:30:53.051Z,96066.80
2019-04-21T21:33:27.561Z,96065.98
2019-04-21T21:35:48.273Z,96068.07
2019-04-21T21:38:19.756Z,96066.08
2019-04-21T21:40:45.434Z,96060.66
2019-04-21T21:43:06.452Z,96061.73
2019-04-21T21:45:38.928Z,96063.31
2019-04-21T21:48:11.234Z,96060.27
2019-04-21T21:50:38.686Z,96063.45
2019-04-21T21:53:03.297Z,96068.99
2019-04-21T21:55:23.816Z,96070.82
2019-04-21T21:57:55.377Z,96068.95
2019-04-21T22:00:19.296Z,96062.27
2019-04-21T22:02:50.832Z,96063.38
2019-04-21T22:05:21.403Z,96057.46
2019-04-21T22:07:44.545Z,96052.07
2019-04-21T22:10:12.492Z,96056.52
2019-04-21T22:12:49.139Z,96050.77
2019-04-21T22:15:14.616Z,96049.59
2019-04-21T22:17:54.056Z,96044.34
2019-04-21T22:20:27.227Z,96045.03
2019-04-21T22:22:44.770Z,96044.98
2019-04-21T22:25:10.135Z,96035.48
2019-04-21T22:27:31.297Z,96038.57
2019-04-21T22:30:02.892Z,96032.86
2019-04-21T22:32:29.040Z,96042.98
2019-04-21T22:35:01.594Z,96039.09
2019-04-21T22:37:39.162Z,96035.74
2019-04-21T22:40:04.502Z,96037.52
2019-04-21T22:42:27.181Z,96039.34
2019-04-21T22:44:50.293Z,96028.54
2019-04-21T22:47:23.725Z,96028.97
2019-04-21T22:49:46.434Z,96034.53
2019-04-21T22:52:18.702Z,96030.69
2019-04-21T22:54:44.573Z,96032.79
2019-04-21T22:57:16.672Z,96028.52
2019-04-21T22:59:40.435Z,96028.54
2019-04-21T23:02:15.284Z,96024.03
2019-04-21T23:04:43.781Z,96030.80
2019-04-21T23:07:10.099Z,96033.24
2019-04-21T23:09:33.089Z,96033.53
2019-04-21T23:12:01.468Z,96025.76
2019-04-21T23:14:32.465Z,96026.05
2019-04-21T23:17:23.163Z,96029.84
2019-04-21T23:19:41.378Z,96030.08
2019-04-21T23:22:15.000Z,96028.64
2019-04-21T23:24:45.585Z,96028.25
2019-04-21T23:27:09.146Z,96033.08
2019-04-21T23:29:48.233Z,96027.09
2019-04-21T23:32:03.211Z,96025.17
2019-04-21T23:34:23.863Z,96024.35
2019-04-21T23:36:54.392Z,96024.64
2019-04-21T23:39:22.703Z,96028.09
2019-04-21T23:41:50.638Z,96014.52
2019-04-21T23:44:14.159Z,96021.98
2019-04-21T23:46:42.151Z,96015.69
2019-04-21T23:49:22.857Z,96025.33
2019-04-21T23:51:45.181Z,96012.95
2019-04-21T23:54:07.131Z,96010.80
2019-04-21T23:56:38.932Z,96006.77
2019-04-21T23:59:04.197Z,96003.56
